Time;durP1;ratioP1;P1;durP2;ratioP2;P2;SDS_P1;SDS_P2;PMS_P1;PMS_P2;Temp;Humidity;BMP_temperature;BMP_pressure;BME280_temperature;BME280_humidity;BME280_pressure;Samples;Min_cycle;Max_cycle;Signal;HPM_P1;HPM_P2
2021/03/30 00:01:16;;;;;;;1999.90;999.90;;;;;;;10.85;81.38;-18198.00;5039957;28;20244;-29
2021/03/30 00:04:07;;;;;;;1999.90;999.90;;;;;;;10.70;80.56;-18194.25;5039738;28;20279;-29
2021/03/30 00:06:56;;;;;;;1999.90;999.90;;;;;;;10.70;81.41;-18194.13;5040371;28;20203;-29
2021/03/30 00:09:43;;;;;;;1999.90;999.90;;;;;;;10.80;77.62;-18196.78;5039759;28;20208;-29
2021/03/30 00:12:37;;;;;;;1999.90;999.90;;;;;;;10.84;76.12;-18197.72;5038885;28;20229;-29
2021/03/30 00:15:27;;;;;;;1999.90;999.90;;;;;;;10.81;76.96;-18196.94;5039157;28;20205;-30
2021/03/30 00:18:15;;;;;;;1999.90;999.90;;;;;;;11.11;73.84;-18204.94;5039615;28;20293;-29
2021/03/30 00:21:04;;;;;;;1999.90;999.90;;;;;;;11.25;72.78;-18208.69;5039945;28;20604;-29
2021/03/30 00:23:54;;;;;;;1999.90;999.90;;;;;;;11.33;70.60;-18210.69;5040116;28;20481;-29
2021/03/30 00:26:44;;;;;;;1999.90;999.90;;;;;;;11.13;72.64;-18205.47;5039548;28;20992;-29
2021/03/30 00:29:42;;;;;;;1999.90;999.90;;;;;;;11.14;71.41;-18205.63;5039551;28;20542;-29
2021/03/30 00:32:34;;;;;;;1999.90;999.90;;;;;;;11.21;70.62;-18207.63;5039252;28;20229;-29
2021/03/30 00:35:20;;;;;;;1999.90;999.90;;;;;;;11.26;71.85;-18208.81;5038837;28;20384;-29
2021/03/30 00:38:09;;;;;;;1999.90;999.90;;;;;;;11.30;70.39;-18210.03;5038775;28;20200;-29
2021/03/30 00:40:58;;;;;;;1999.90;999.90;;;;;;;11.42;70.68;-18213.09;5047900;28;20201;-30
2021/03/30 00:43:44;;;;;;;1999.90;999.90;;;;;;;11.45;68.81;-18213.75;5058343;28;20221;-30
2021/03/30 00:46:30;;;;;;;1999.90;999.90;;;;;;;11.36;71.99;-18211.63;5050562;28;20608;-29
2021/03/30 00:49:17;;;;;;;1999.90;999.90;;;;;;;11.38;69.56;-18212.16;5039157;28;20224;-29
2021/03/30 00:52:04;;;;;;;1999.90;999.90;;;;;;;11.61;69.90;-18218.03;5039171;28;20209;-29
2021/03/30 00:54:50;;;;;;;1999.90;999.90;;;;;;;11.69;68.54;-18220.19;5049716;28;20282;-29
2021/03/30 00:57:37;;;;;;;1999.90;999.90;;;;;;;11.82;66.98;-18223.66;5040248;28;20272;-29
2021/03/30 01:00:24;;;;;;;1999.90;999.90;;;;;;;11.62;68.37;-18218.44;5040427;28;20217;-29
2021/03/30 01:03:10;;;;;;;1999.90;999.90;;;;;;;11.60;69.13;-18217.78;5038945;28;20201;-29
2021/03/30 01:05:56;;;;;;;1999.90;999.90;;;;;;;11.69;67.71;-18220.19;5038698;28;20287;-29
2021/03/30 01:09:07;;;;;;;1999.90;999.90;;;;;;;11.70;68.04;-18220.44;5038728;28;20260;-29
2021/03/30 01:12:05;;;;;;;1999.90;999.90;;;;;;;11.64;68.23;-18218.84;5038642;28;20201;-29
2021/03/30 01:15:02;;;;;;;1999.90;999.90;;;;;;;11.59;68.33;-18217.50;5038503;28;20256;-30
2021/03/30 01:17:56;;;;;;;1999.90;999.90;;;;;;;11.46;68.55;-18214.03;5038297;28;20201;-29
2021/03/30 01:21:13;;;;;;;1999.90;999.90;;;;;;;11.49;68.26;-18214.84;5038622;28;20200;-29
2021/03/30 01:24:11;;;;;;;1999.90;999.90;;;;;;;11.50;67.96;-18215.22;5038295;28;20711;-30
2021/03/30 01:27:01;;;;;;;1999.90;999.90;;;;;;;11.35;70.99;-18211.22;5038389;28;20205;-29
2021/03/30 01:29:51;;;;;;;1999.90;999.90;;;;;;;11.22;70.98;-18207.88;5038425;28;20264;-29
2021/03/30 01:32:41;;;;;;;1999.90;999.90;;;;;;;11.16;72.99;-18206.28;5037845;28;20229;-29
2021/03/30 01:35:28;;;;;;;1999.90;999.90;;;;;;;11.25;71.96;-18208.56;5037896;28;20497;-29
2021/03/30 01:38:18;;;;;;;1999.90;999.90;;;;;;;11.10;73.35;-18204.69;5038505;28;20221;-29
2021/03/30 01:41:05;;;;;;;1999.90;999.90;;;;;;;10.80;77.57;-18196.78;5038454;28;20496;-29
2021/03/30 01:43:56;;;;;;;1999.90;999.90;;;;;;;10.78;76.75;-18196.13;5037939;28;20200;-29
2021/03/30 01:46:43;;;;;;;1999.90;999.90;;;;;;;10.81;76.28;-18197.06;5038030;28;20224;-29
2021/03/30 01:49:30;;;;;;;1999.90;999.90;;;;;;;10.83;74.85;-18197.59;5038048;28;20201;-29
2021/03/30 01:52:18;;;;;;;1999.90;999.90;;;;;;;10.86;75.91;-18198.41;5037365;28;20222;-30
2021/03/30 01:55:09;;;;;;;1999.90;999.90;;;;;;;10.59;79.04;-18191.19;5037960;28;20597;-29
2021/03/30 01:57:58;;;;;;;1999.90;999.90;;;;;;;10.24;83.87;-18181.94;5038049;28;20487;-29
2021/03/30 02:00:44;;;;;;;1999.90;999.90;;;;;;;10.16;82.10;-18179.94;5038184;28;20634;-29
2021/03/30 02:03:32;;;;;;;1999.90;999.90;;;;;;;10.31;79.64;-18183.97;5037445;28;20200;-29
2021/03/30 02:06:19;;;;;;;1999.90;999.90;;;;;;;10.40;78.51;-18186.09;5037843;28;20278;-29
2021/03/30 02:09:09;;;;;;;1999.90;999.90;;;;;;;10.74;75.65;-18195.06;5038174;28;20291;-29
2021/03/30 02:12:01;;;;;;;1999.90;999.90;;;;;;;10.69;77.51;-18193.97;5038306;28;20200;-29
2021/03/30 02:14:50;;;;;;;1999.90;999.90;;;;;;;10.51;80.95;-18189.16;5037415;28;20209;-30
2021/03/30 02:17:43;;;;;;;1999.90;999.90;;;;;;;10.51;77.59;-18189.16;5037783;28;20859;-29
2021/03/30 02:20:36;;;;;;;1999.90;999.90;;;;;;;10.62;78.22;-18192.13;5038332;28;20610;-29
2021/03/30 02:23:24;;;;;;;1999.90;999.90;;;;;;;10.74;75.12;-18195.06;5037364;28;20328;-29
2021/03/30 02:26:13;;;;;;;1999.90;999.90;;;;;;;10.93;72.88;-18200.13;5037821;28;20221;-29
2021/03/30 02:29:00;;;;;;;1999.90;999.90;;;;;;;11.03;72.04;-18202.94;5037630;28;20584;-29
2021/03/30 02:31:49;;;;;;;1999.90;999.90;;;;;;;11.07;71.22;-18203.75;5037508;28;20221;-29
2021/03/30 02:34:38;;;;;;;1999.90;999.90;;;;;;;11.20;70.87;-18207.34;5037867;28;20309;-29
2021/03/30 02:37:25;;;;;;;1999.90;999.90;;;;;;;11.19;70.23;-18207.09;5045939;28;20260;-30
2021/03/30 02:40:16;;;;;;;1999.90;999.90;;;;;;;11.20;71.42;-18207.34;5052742;28;20205;-29
2021/03/30 02:43:06;;;;;;;1999.90;999.90;;;;;;;11.45;68.74;-18213.91;5040083;28;20217;-29
2021/03/30 02:45:53;;;;;;;1999.90;999.90;;;;;;;11.45;69.34;-18213.75;5050234;28;20193;-29
2021/03/30 02:48:40;;;;;;;1999.90;999.90;;;;;;;11.50;69.31;-18215.22;5047657;28;20200;-29
2021/03/30 02:51:29;;;;;;;1999.90;999.90;;;;;;;11.44;69.85;-18213.50;5047057;28;20212;-29
2021/03/30 02:54:17;;;;;;;1999.90;999.90;;;;;;;11.44;69.32;-18213.50;5046237;28;20293;-30
2021/03/30 02:57:06;;;;;;;1999.90;999.90;;;;;;;11.34;67.13;-18210.97;5048620;28;20223;-29
2021/03/30 02:59:54;;;;;;;1999.90;999.90;;;;;;;11.50;68.95;-18215.09;5043651;28;20205;-29
2021/03/30 03:02:42;;;;;;;1999.90;999.90;;;;;;;11.30;69.64;-18209.88;5037645;28;20555;-29
2021/03/30 03:05:28;;;;;;;1999.90;999.90;;;;;;;11.32;69.61;-18210.44;5037471;28;20201;-30
2021/03/30 03:08:15;;;;;;;1999.90;999.90;;;;;;;11.13;69.67;-18205.34;5037135;28;20455;-29
2021/03/30 03:11:03;;;;;;;1999.90;999.90;;;;;;;11.32;68.55;-18210.56;5037038;28;20204;-29
2021/03/30 03:13:51;;;;;;;1999.90;999.90;;;;;;;11.33;69.50;-18210.81;5036750;28;20228;-29
2021/03/30 03:16:38;;;;;;;1999.90;999.90;;;;;;;11.34;69.08;-18211.09;5036831;28;20482;-29
2021/03/30 03:19:25;;;;;;;1999.90;999.90;;;;;;;11.30;70.09;-18210.03;5036789;28;20213;-29
2021/03/30 03:22:11;;;;;;;1999.90;999.90;;;;;;;11.43;68.70;-18213.22;5036955;28;20201;-30
2021/03/30 03:24:57;;;;;;;1999.90;999.90;;;;;;;11.25;69.00;-18208.69;5036925;28;20490;-29
2021/03/30 03:27:45;;;;;;;1999.90;999.90;;;;;;;11.03;71.72;-18202.81;5037003;28;20279;-29
2021/03/30 03:30:32;;;;;;;1999.90;999.90;;;;;;;10.74;74.23;-18195.19;5036595;28;20354;-29
2021/03/30 03:33:18;;;;;;;1999.90;999.90;;;;;;;10.58;74.44;-18190.91;5037043;28;20220;-29
2021/03/30 03:36:09;;;;;;;1999.90;999.90;;;;;;;10.56;75.62;-18190.50;5036793;28;20577;-29
2021/03/30 03:38:55;;;;;;;1999.90;999.90;;;;;;;10.56;75.37;-18190.50;5037533;28;20201;-29
2021/03/30 03:41:42;;;;;;;1999.90;999.90;;;;;;;10.30;78.89;-18183.69;5037238;28;20208;-30
2021/03/30 03:44:29;;;;;;;1999.90;999.90;;;;;;;10.23;78.47;-18181.81;5036373;28;20215;-30
2021/03/30 03:47:14;;;;;;;1999.90;999.90;;;;;;;10.14;80.12;-18179.41;5036329;28;20197;-30
2021/03/30 03:50:02;;;;;;;1999.90;999.90;;;;;;;10.38;76.95;-18185.56;5035958;28;20291;-30
2021/03/30 03:52:52;;;;;;;1999.90;999.90;;;;;;;10.39;75.34;-18185.97;5036589;28;20207;-30
2021/03/30 03:55:45;;;;;;;1999.90;999.90;;;;;;;10.33;77.78;-18184.34;5036665;28;20275;-30
2021/03/30 03:58:37;;;;;;;1999.90;999.90;;;;;;;10.13;81.80;-18179.00;5036492;28;20253;-30
2021/03/30 04:01:30;;;;;;;1999.90;999.90;;;;;;;10.16;81.11;-18179.94;5036722;28;20204;-30
2021/03/30 04:04:23;;;;;;;1999.90;999.90;;;;;;;10.16;80.86;-18179.81;5036417;28;20488;-29
2021/03/30 04:07:16;;;;;;;1999.90;999.90;;;;;;;9.96;82.78;-18174.72;5036750;28;20212;-29
2021/03/30 04:10:04;;;;;;;1999.90;999.90;;;;;;;9.84;83.27;-18171.38;5036801;28;20256;-29
2021/03/30 04:12:51;;;;;;;1999.90;999.90;;;;;;;9.86;84.19;-18172.03;5036804;28;20209;-29
2021/03/30 04:15:38;;;;;;;1999.90;999.90;;;;;;;9.92;82.62;-18173.66;5039729;28;20301;-29
2021/03/30 04:18:24;;;;;;;1999.90;999.90;;;;;;;10.00;83.23;-18175.66;5039843;28;20205;-29
2021/03/30 04:21:18;;;;;;;1999.90;999.90;;;;;;;9.86;85.22;-18171.91;5040082;28;20797;-29
2021/03/30 04:24:06;;;;;;;1999.90;999.90;;;;;;;10.00;82.20;-18175.66;5040262;28;20201;-29
2021/03/30 04:26:59;;;;;;;1999.90;999.90;;;;;;;10.10;81.66;-18178.19;5039740;28;20295;-29
2021/03/30 04:29:46;;;;;;;1999.90;999.90;;;;;;;10.15;80.05;-18179.69;5040027;28;20205;-29
2021/03/30 04:32:31;;;;;;;1999.90;999.90;;;;;;;10.18;80.05;-18180.47;5039528;28;20596;-29
2021/03/30 04:35:18;;;;;;;1999.90;999.90;;;;;;;10.20;79.68;-18180.88;5039987;28;20231;-29
2021/03/30 04:38:04;;;;;;;1999.90;999.90;;;;;;;10.01;80.49;-18176.06;5039764;28;20315;-29
2021/03/30 04:40:52;;;;;;;1999.90;999.90;;;;;;;9.74;85.83;-18168.84;5039875;28;20293;-29
2021/03/30 04:43:38;;;;;;;1999.90;999.90;;;;;;;9.66;86.56;-18166.84;5039144;28;20622;-29
2021/03/30 04:46:24;;;;;;;1999.90;999.90;;;;;;;9.63;87.18;-18166.03;5039983;28;20198;-29
2021/03/30 04:49:12;;;;;;;1999.90;999.90;;;;;;;9.41;89.13;-18160.00;5039429;28;20201;-29
2021/03/30 04:51:59;;;;;;;1999.90;999.90;;;;;;;9.46;90.21;-18161.34;5039268;28;20201;-29
2021/03/30 04:54:45;;;;;;;1999.90;999.90;;;;;;;9.52;87.09;-18162.94;5039311;28;20228;-29
2021/03/30 04:57:31;;;;;;;1999.90;999.90;;;;;;;9.53;86.43;-18163.22;5039603;28;20355;-29
2021/03/30 05:00:19;;;;;;;1999.90;999.90;;;;;;;9.25;91.89;-18156.00;5038691;28;20620;-29
2021/03/30 05:03:05;;;;;;;1999.90;999.90;;;;;;;9.20;90.25;-18154.66;5038171;28;20190;-29
2021/03/30 05:05:55;;;;;;;1999.90;999.90;;;;;;;9.43;89.30;-18160.53;5038465;28;20204;-30
2021/03/30 05:08:41;;;;;;;1999.90;999.90;;;;;;;9.66;86.39;-18166.69;5039791;28;20304;-29
2021/03/30 05:11:27;;;;;;;1999.90;999.90;;;;;;;9.75;85.46;-18169.09;5039889;28;20205;-29
2021/03/30 05:14:13;;;;;;;1999.90;999.90;;;;;;;9.63;85.84;-18165.91;5057126;28;20275;-29
2021/03/30 05:16:59;;;;;;;1999.90;999.90;;;;;;;9.48;88.68;-18162.00;5047796;28;20281;-29
2021/03/30 05:19:46;;;;;;;1999.90;999.90;;;;;;;9.55;88.09;-18163.88;5038687;28;20203;-29
2021/03/30 05:22:32;;;;;;;1999.90;999.90;;;;;;;9.44;88.99;-18160.81;5038920;28;20327;-29
2021/03/30 05:25:19;;;;;;;1999.90;999.90;;;;;;;9.67;89.03;-18167.09;5038133;28;20196;-29
2021/03/30 05:28:06;;;;;;;1999.90;999.90;;;;;;;9.97;87.55;-18175.00;5046289;28;20267;-29
2021/03/30 05:30:55;;;;;;;1999.90;999.90;;;;;;;10.61;84.57;-18191.84;5040816;28;20204;-29
2021/03/30 05:33:41;;;;;;;1999.90;999.90;;;;;;;11.18;79.25;-18206.81;5038481;28;20649;-29
2021/03/30 05:36:27;;;;;;;1999.90;999.90;;;;;;;11.40;77.24;-18212.56;5050444;28;20205;-30
2021/03/30 05:39:13;;;;;;;1999.90;999.90;;;;;;;11.45;78.03;-18213.75;5045000;28;20608;-29
2021/03/30 05:42:00;;;;;;;1999.90;999.90;;;;;;;12.10;74.19;-18231.00;5039188;28;20291;-29
2021/03/30 05:44:51;;;;;;;1999.90;999.90;;;;;;;12.33;71.54;-18237.16;5040562;28;20201;-29
2021/03/30 05:47:37;;;;;;;1999.90;999.90;;;;;;;12.10;74.77;-18230.88;5039166;28;20201;-29
2021/03/30 05:50:27;;;;;;;1999.90;999.90;;;;;;;12.19;73.85;-18233.41;5039919;28;20201;-29
2021/03/30 05:53:17;;;;;;;1999.90;999.90;;;;;;;12.33;72.31;-18237.16;5038922;28;20739;-29
2021/03/30 05:56:07;;;;;;;1999.90;999.90;;;;;;;12.20;74.62;-18233.53;5040092;28;20201;-29
2021/03/30 05:58:57;;;;;;;1999.90;999.90;;;;;;;11.91;73.58;-18225.94;5041469;28;20280;-29
2021/03/30 06:01:52;;;;;;;1999.90;999.90;;;;;;;11.93;73.88;-18226.47;5017939;28;20292;-30
2021/03/30 06:04:41;;;;;;;1999.90;999.90;;;;;;;12.27;74.04;-18235.53;5019761;28;20198;-30
2021/03/30 06:07:28;;;;;;;1999.90;999.90;;;;;;;13.38;70.54;-18264.63;5021064;28;20198;-30
2021/03/30 06:10:16;;;;;;;1999.90;999.90;;;;;;;14.52;65.00;-18294.63;5021182;28;20203;-29
2021/03/30 06:13:05;;;;;;;1999.90;999.90;;;;;;;15.07;62.66;-18309.03;5017520;28;20201;-29
2021/03/30 06:15:52;;;;;;;1999.90;999.90;;;;;;;15.08;60.09;-18309.28;5018056;28;20206;-28
2021/03/30 06:18:38;;;;;;;1999.90;999.90;;;;;;;15.47;58.52;-18319.53;5021150;28;20206;-29
2021/03/30 06:21:26;;;;;;;1999.90;999.90;;;;;;;14.79;58.83;-18301.69;5019104;28;20448;-29
2021/03/30 06:24:36;;;;;;;1999.90;999.90;;;;;;;14.76;60.36;-18301.03;5021480;28;20745;-29
2021/03/30 06:27:28;;;;;;;1999.90;999.90;;;;;;;14.76;59.93;-18300.91;5011643;28;20205;-29
2021/03/30 06:30:15;;;;;;;1999.90;999.90;;;;;;;15.02;61.31;-18307.81;5018263;28;20494;-28
2021/03/30 06:33:02;;;;;;;1999.90;999.90;;;;;;;15.20;61.14;-18312.47;5019332;28;20205;-29
2021/03/30 06:35:49;;;;;;;1999.90;999.90;;;;;;;15.50;60.09;-18320.34;5018102;28;20240;-29
2021/03/30 06:38:47;;;;;;;1999.90;999.90;;;;;;;15.93;57.54;-18331.53;5019751;28;20205;-29
2021/03/30 06:41:44;;;;;;;1999.90;999.90;;;;;;;17.32;54.05;-18367.97;5019345;28;20247;-29
2021/03/30 06:44:34;;;;;;;1999.90;999.90;;;;;;;17.93;47.98;-18384.06;5016688;28;20206;-29
2021/03/30 06:47:24;;;;;;;1999.90;999.90;;;;;;;18.18;46.16;-18390.69;5018586;28;20495;-29
2021/03/30 06:50:27;;;;;;;1999.90;999.90;;;;;;;20.04;44.43;-18439.13;5018753;28;20470;-29
2021/03/30 06:53:14;;;;;;;1999.90;999.90;;;;;;;19.33;42.86;-18420.69;5016869;28;20714;-29
2021/03/30 06:56:19;;;;;;;1999.90;999.90;;;;;;;19.61;44.86;-18428.00;5016597;28;20605;-28
2021/03/30 06:59:05;;;;;;;1999.90;999.90;;;;;;;21.04;42.52;-18465.38;5019227;28;20311;-29
2021/03/30 07:01:55;;;;;;;1999.90;999.90;;;;;;;22.02;40.33;-18490.78;5035796;28;20552;-29
2021/03/30 07:04:53;;;;;;;1999.90;999.90;;;;;;;19.78;42.71;-18432.50;5036382;28;20213;-28
2021/03/30 07:07:43;;;;;;;1999.90;999.90;;;;;;;19.25;44.17;-18418.56;5038182;28;20289;-28
2021/03/30 07:10:51;;;;;;;1999.90;999.90;;;;;;;18.85;44.64;-18408.09;5037768;28;20197;-28
2021/03/30 07:13:36;;;;;;;1999.90;999.90;;;;;;;19.52;44.76;-18425.75;5035826;28;20319;-28
2021/03/30 07:16:29;;;;;;;1999.90;999.90;;;;;;;19.27;45.38;-18419.22;5038646;28;20248;-29
2021/03/30 07:19:21;;;;;;;1999.90;999.90;;;;;;;20.47;43.25;-18450.53;5037924;28;20196;-29
2021/03/30 07:22:12;;;;;;;1999.90;999.90;;;;;;;19.11;45.90;-18414.84;5037705;28;20200;-28
2021/03/30 07:25:02;;;;;;;1999.90;999.90;;;;;;;20.16;44.22;-18442.44;5039243;28;20260;-29
2021/03/30 07:27:54;;;;;;;1999.90;999.90;;;;;;;18.67;46.83;-18403.44;5036703;28;20199;-29
2021/03/30 07:30:44;;;;;;;1999.90;999.90;;;;;;;19.54;46.29;-18426.28;5038264;28;20589;-28
2021/03/30 07:33:43;;;;;;;1999.90;999.90;;;;;;;19.67;43.66;-18429.44;5036645;28;20636;-28
2021/03/30 07:36:34;;;;;;;1999.90;999.90;;;;;;;19.14;46.67;-18415.66;5038356;28;20200;-28
2021/03/30 07:39:22;;;;;;;1999.90;999.90;;;;;;;20.83;42.31;-18459.94;5039477;28;20203;-28
2021/03/30 07:42:10;;;;;;;1999.90;999.90;;;;;;;19.79;44.35;-18432.63;5035867;28;20314;-28
2021/03/30 07:45:02;;;;;;;1999.90;999.90;;;;;;;19.88;45.64;-18435.03;5038597;28;20194;-29
2021/03/30 07:47:49;;;;;;;1999.90;999.90;;;;;;;20.26;44.06;-18445.09;5037908;28;20315;-28
2021/03/30 07:50:49;;;;;;;1999.90;999.90;;;;;;;19.15;45.12;-18415.91;5041615;28;20680;-29
2021/03/30 07:53:39;;;;;;;1999.90;999.90;;;;;;;21.54;42.44;-18478.47;5042604;28;20222;-29
2021/03/30 07:56:52;;;;;;;1999.90;999.90;;;;;;;19.57;47.37;-18427.06;5040443;28;20202;-28
2021/03/30 07:59:55;;;;;;;1999.90;999.90;;;;;;;21.67;43.02;-18481.78;5041424;28;20251;-28
2021/03/30 08:02:45;;;;;;;1999.90;999.90;;;;;;;22.49;41.49;-18503.09;5041099;28;20212;-28
2021/03/30 08:05:32;;;;;;;1999.90;999.90;;;;;;;21.57;43.81;-18479.28;5040404;28;20195;-28
2021/03/30 08:08:22;;;;;;;1999.90;999.90;;;;;;;22.24;41.22;-18496.75;5039395;28;20210;-28
2021/03/30 08:11:13;;;;;;;1999.90;999.90;;;;;;;22.42;41.67;-18501.25;5037696;28;20213;-28
2021/03/30 08:13:59;;;;;;;1999.90;999.90;;;;;;;21.54;41.92;-18478.34;5039550;28;20224;-29
2021/03/30 08:16:50;;;;;;;1999.90;999.90;;;;;;;18.86;47.54;-18408.34;5044460;28;20206;-28
2021/03/30 08:19:59;;;;;;;1999.90;999.90;;;;;;;20.88;44.66;-18461.13;5039539;28;20673;-28
2021/03/30 08:23:13;;;;;;;1999.90;999.90;;;;;;;20.13;45.12;-18441.66;5040736;28;20202;-28
2021/03/30 08:26:20;;;;;;;1999.90;999.90;;;;;;;21.26;44.49;-18471.06;5039772;28;20388;-28
2021/03/30 08:29:09;;;;;;;1999.90;999.90;;;;;;;22.95;42.44;-18515.13;5044579;28;20193;-28
2021/03/30 08:31:58;;;;;;;1999.90;999.90;;;;;;;20.92;44.53;-18462.19;5041770;28;20279;-29
2021/03/30 08:34:44;;;;;;;1999.90;999.90;;;;;;;22.65;42.57;-18507.31;5038766;28;20312;-29
2021/03/30 08:37:40;;;;;;;1999.90;999.90;;;;;;;22.30;42.13;-18498.34;5041269;28;20206;-29
2021/03/30 08:40:48;;;;;;;1999.90;999.90;;;;;;;23.08;39.48;-18518.56;5039900;28;20521;-29
2021/03/30 08:43:36;;;;;;;1999.90;999.90;;;;;;;23.64;39.34;-18533.22;5040784;28;20697;-28
2021/03/30 08:46:40;;;;;;;1999.90;999.90;;;;;;;23.46;40.16;-18528.47;5043481;28;20229;-29
2021/03/30 08:49:32;;;;;;;1999.90;999.90;;;;;;;23.67;38.54;-18534.03;5038557;28;20213;-28
2021/03/30 08:52:19;;;;;;;1999.90;999.90;;;;;;;21.15;42.79;-18468.16;5039433;28;20200;-28
2021/03/30 08:55:09;;;;;;;1999.90;999.90;;;;;;;22.97;39.55;-18515.78;5024277;28;20233;-28
2021/03/30 08:58:02;;;;;;;1999.90;999.90;;;;;;;23.94;37.59;-18541.03;5019615;28;20202;-29
2021/03/30 09:00:48;;;;;;;1999.90;999.90;;;;;;;23.51;40.01;-18529.78;5018424;28;20576;-28
2021/03/30 09:03:35;;;;;;;1999.90;999.90;;;;;;;23.23;38.80;-18522.41;5033649;28;20229;-28
2021/03/30 09:06:34;;;;;;;1999.90;999.90;;;;;;;22.93;40.19;-18514.59;5033897;28;20218;-29
2021/03/30 09:09:22;;;;;;;1999.90;999.90;;;;;;;21.33;43.34;-18472.94;5032990;28;20601;-28
2021/03/30 09:12:23;;;;;;;1999.90;999.90;;;;;;;21.64;43.49;-18481.13;5018633;28;20210;-36
2021/03/30 09:15:14;;;;;;;1999.90;999.90;;;;;;;22.16;43.35;-18494.50;5018357;28;20252;-28
2021/03/30 09:18:01;;;;;;;1999.90;999.90;;;;;;;21.94;41.66;-18488.81;5018367;28;20261;-28
2021/03/30 09:21:07;;;;;;;1999.90;999.90;;;;;;;23.63;40.25;-18532.84;5019812;28;20221;-28
2021/03/30 09:23:57;;;;;;;1999.90;999.90;;;;;;;23.89;38.51;-18539.56;5018685;28;20480;-28
2021/03/30 09:26:49;;;;;;;1999.90;999.90;;;;;;;23.99;39.56;-18542.34;5018181;28;20209;-28
2021/03/30 09:29:43;;;;;;;1999.90;999.90;;;;;;;22.08;39.68;-18492.50;5018575;28;20202;-29
2021/03/30 09:32:32;;;;;;;1999.90;999.90;;;;;;;21.57;41.78;-18479.16;5017723;28;20216;-29
2021/03/30 09:35:22;;;;;;;1999.90;999.90;;;;;;;22.73;37.99;-18509.31;5018650;28;20273;-28
2021/03/30 09:38:09;;;;;;;1999.90;999.90;;;;;;;24.19;34.76;-18547.34;5025105;28;20198;-28
2021/03/30 09:40:56;;;;;;;1999.90;999.90;;;;;;;24.03;35.63;-18543.41;5019246;28;20194;-28
2021/03/30 09:43:43;;;;;;;1999.90;999.90;;;;;;;23.48;35.77;-18528.88;5020179;28;20253;-29
2021/03/30 09:46:32;;;;;;;1999.90;999.90;;;;;;;24.16;34.55;-18546.56;5017817;28;20206;-28
2021/03/30 09:49:20;;;;;;;1999.90;999.90;;;;;;;25.53;32.43;-18582.31;5031832;28;20205;-28
2021/03/30 09:52:13;;;;;;;1999.90;999.90;;;;;;;23.94;35.43;-18541.03;5039791;28;20588;-28
2021/03/30 09:55:03;;;;;;;1999.90;999.90;;;;;;;25.56;33.91;-18583.13;5042908;28;20296;-28
2021/03/30 09:58:00;;;;;;;1999.90;999.90;;;;;;;24.35;30.96;-18551.72;5041587;28;20285;-29
2021/03/30 10:00:49;;;;;;;1999.90;999.90;;;;;;;22.80;33.02;-18511.28;5034643;28;20237;-31
2021/03/30 10:03:37;;;;;;;1999.90;999.90;;;;;;;23.94;33.13;-18541.03;5036852;28;20256;-31
2021/03/30 10:06:23;;;;;;;1999.90;999.90;;;;;;;22.94;33.38;-18515.00;5036910;28;20201;-31
2021/03/30 10:09:09;;;;;;;1999.90;999.90;;;;;;;24.08;35.23;-18544.47;5037679;28;20205;-31
2021/03/30 10:11:55;;;;;;;1999.90;999.90;;;;;;;23.77;35.62;-18536.53;5036698;28;20197;-31
2021/03/30 10:15:00;;;;;;;1999.90;999.90;;;;;;;23.15;35.70;-18520.28;5036747;28;20675;-31
2021/03/30 10:17:49;;;;;;;1999.90;999.90;;;;;;;24.35;35.13;-18551.72;5019425;28;20199;-31
2021/03/30 10:20:37;;;;;;;1999.90;999.90;;;;;;;24.35;34.17;-18551.59;5016813;28;20208;-31
2021/03/30 10:23:25;;;;;;;1999.90;999.90;;;;;;;23.06;32.10;-18517.91;5017131;28;20601;-32
2021/03/30 10:26:17;;;;;;;1999.90;999.90;;;;;;;22.94;33.59;-18514.88;5018264;28;20256;-31
2021/03/30 10:29:07;;;;;;;1999.90;999.90;;;;;;;23.26;33.47;-18523.19;5017198;28;20210;-31
2021/03/30 10:32:00;;;;;;;1999.90;999.90;;;;;;;24.52;32.66;-18556.06;5028633;28;20228;-31
2021/03/30 10:34:47;;;;;;;1999.90;999.90;;;;;;;23.97;32.88;-18541.81;5036036;28;20229;-31
2021/03/30 10:37:35;;;;;;;1999.90;999.90;;;;;;;25.44;33.12;-18579.94;5037112;28;20492;-31
2021/03/30 10:40:29;;;;;;;1999.90;999.90;;;;;;;24.39;33.09;-18552.63;5031403;28;20352;-31
2021/03/30 10:43:24;;;;;;;1999.90;999.90;;;;;;;23.99;32.74;-18542.22;5036273;28;20706;-31
2021/03/30 10:46:20;;;;;;;1999.90;999.90;;;;;;;25.21;32.72;-18573.88;5026576;28;20605;-31
2021/03/30 10:49:07;;;;;;;1999.90;999.90;;;;;;;25.04;32.84;-18569.66;5017028;28;20218;-32
2021/03/30 10:51:53;;;;;;;1999.90;999.90;;;;;;;24.80;31.60;-18563.31;5023335;28;20293;-31
2021/03/30 10:54:39;;;;;;;1999.90;999.90;;;;;;;23.74;30.98;-18535.63;5037097;28;20225;-32
2021/03/30 10:57:30;;;;;;;1999.90;999.90;;;;;;;23.43;31.60;-18527.53;5033998;28;20221;-31
2021/03/30 11:00:18;;;;;;;1999.90;999.90;;;;;;;23.20;33.68;-18521.72;5036043;28;20306;-30
2021/03/30 11:03:05;;;;;;;1999.90;999.90;;;;;;;25.50;31.18;-18581.53;5016871;28;20264;-30
2021/03/30 11:05:55;;;;;;;1999.90;999.90;;;;;;;24.98;26.91;-18567.94;5016701;28;20850;-30
2021/03/30 11:08:44;;;;;;;1999.90;999.90;;;;;;;26.36;28.82;-18603.94;5015779;28;20209;-30
2021/03/30 11:11:31;;;;;;;1999.90;999.90;;;;;;;25.67;29.74;-18586.03;5026821;28;20367;-30
2021/03/30 11:14:18;;;;;;;1999.90;999.90;;;;;;;26.02;29.47;-18595.09;5031419;28;20361;-30
2021/03/30 11:17:14;;;;;;;1999.90;999.90;;;;;;;25.36;30.07;-18577.84;5031640;28;20209;-30
2021/03/30 11:20:02;;;;;;;1999.90;999.90;;;;;;;24.13;27.63;-18545.91;5036410;28;20214;-31
2021/03/30 11:22:51;;;;;;;1999.90;999.90;;;;;;;25.04;27.23;-18569.66;5026939;28;20205;-30
2021/03/30 11:25:39;;;;;;;1999.90;999.90;;;;;;;25.82;26.66;-18589.84;5020771;28;20262;-30
2021/03/30 11:28:36;;;;;;;1999.90;999.90;;;;;;;26.42;27.61;-18605.38;5021953;28;20629;-29
2021/03/30 11:31:38;;;;;;;1999.90;999.90;;;;;;;25.29;28.73;-18576.13;5020624;28;20202;-29
2021/03/30 11:34:28;;;;;;;1999.90;999.90;;;;;;;23.77;28.08;-18536.41;5019496;28;20325;-29
2021/03/30 11:37:32;;;;;;;1999.90;999.90;;;;;;;25.24;26.83;-18574.69;5019967;28;20530;-29
2021/03/30 11:40:20;;;;;;;1999.90;999.90;;;;;;;26.59;25.39;-18609.84;5019528;28;20213;-29
2021/03/30 11:43:07;;;;;;;1999.90;999.90;;;;;;;26.19;24.61;-18599.31;5025955;28;20263;-29
2021/03/30 11:45:56;;;;;;;1999.90;999.90;;;;;;;25.21;25.29;-18574.00;5040009;28;20478;-29
2021/03/30 11:48:47;;;;;;;1999.90;999.90;;;;;;;26.34;26.35;-18603.41;5044956;28;20197;-29
2021/03/30 11:51:33;;;;;;;1999.90;999.90;;;;;;;25.51;25.71;-18581.66;5027335;28;20222;-29
2021/03/30 11:54:20;;;;;;;1999.90;999.90;;;;;;;26.47;25.41;-18606.56;5039767;28;20319;-29
2021/03/30 11:57:11;;;;;;;1999.90;999.90;;;;;;;24.92;25.00;-18566.38;5030707;28;20206;-30
2021/03/30 12:00:06;;;;;;;1999.90;999.90;;;;;;;27.12;24.18;-18623.41;5023303;28;20201;-30
2021/03/30 12:03:13;;;;;;;1999.90;999.90;;;;;;;24.43;26.56;-18553.56;5034566;28;20490;-29
2021/03/30 12:06:05;;;;;;;1999.90;999.90;;;;;;;23.62;27.53;-18532.69;5039120;28;20197;-29
2021/03/30 12:08:58;;;;;;;1999.90;999.90;;;;;;;25.90;26.05;-18591.81;5033025;28;20217;-29
2021/03/30 12:11:47;;;;;;;1999.90;999.90;;;;;;;26.26;26.73;-18601.16;5035441;28;20201;-29
2021/03/30 12:14:38;;;;;;;1999.90;999.90;;;;;;;26.45;26.51;-18606.19;5042576;28;20248;-29
2021/03/30 12:17:24;;;;;;;1999.90;999.90;;;;;;;27.01;25.56;-18620.66;5033947;28;20473;-29
2021/03/30 12:20:12;;;;;;;1999.90;999.90;;;;;;;26.18;25.03;-18599.19;5041197;28;20604;-29
2021/03/30 12:22:58;;;;;;;1999.90;999.90;;;;;;;24.48;26.95;-18555.03;5040328;28;20201;-29
2021/03/30 12:25:49;;;;;;;1999.90;999.90;;;;;;;24.80;26.28;-18563.31;5038065;28;20229;-30
2021/03/30 12:28:39;;;;;;;1999.90;999.90;;;;;;;25.26;25.78;-18575.19;5020121;28;20760;-29